Time;durP1;ratioP1;P1;durP2;ratioP2;P2;SDS_P1;SDS_P2;PMS_P1;PMS_P2;Temp;Humidity;BMP_temperature;BMP_pressure;BME280_temperature;BME280_humidity;BME280_pressure;Samples;Min_cycle;Max_cycle;Signal;HPM_P1;HPM_P2
2022/04/04 00:00:18;;;;;;;5.05;3.28;;;;;;;2.13;50.66;94101.88;5106411;28;20024;-72
2022/04/04 00:02:43;;;;;;;4.35;2.50;;;;;;;2.10;49.75;94095.28;5106320;28;20068;-72
2022/04/04 00:05:11;;;;;;;5.63;2.72;;;;;;;2.11;50.77;94096.84;5105195;28;20020;-72
2022/04/04 00:07:37;;;;;;;5.68;3.38;;;;;;;2.11;51.93;94098.69;5106105;28;20028;-72
2022/04/04 00:10:02;;;;;;;4.10;2.35;;;;;;;2.07;51.42;94101.03;5106030;28;20302;-72
2022/04/04 00:12:28;;;;;;;4.53;2.92;;;;;;;2.08;51.87;94100.00;5106256;28;20027;-72
2022/04/04 00:14:53;;;;;;;5.30;2.47;;;;;;;2.14;51.82;94092.94;5106304;28;20024;-71
2022/04/04 00:17:19;;;;;;;4.78;2.70;;;;;;;2.13;51.01;94101.88;5106207;28;20023;-71
2022/04/04 00:19:45;;;;;;;5.43;2.65;;;;;;;2.12;51.66;94100.31;5105919;28;20325;-72
2022/04/04 00:22:11;;;;;;;4.20;2.53;;;;;;;2.07;51.60;94098.41;5105788;28;20016;-71
2022/04/04 00:24:36;;;;;;;5.10;2.40;;;;;;;2.10;51.75;94105.03;5106068;28;20083;-72
2022/04/04 00:27:02;;;;;;;4.97;2.60;;;;;;;2.14;52.21;94101.63;5105887;28;20020;-72
2022/04/04 00:29:27;;;;;;;3.92;2.35;;;;;;;2.18;52.94;94105.31;5105662;28;20023;-71
2022/04/04 00:31:53;;;;;;;9.20;2.83;;;;;;;2.16;51.54;94102.16;5104740;28;20199;-71
2022/04/04 00:34:19;;;;;;;4.68;2.63;;;;;;;2.05;52.20;94111.03;5105843;28;20218;-72
2022/04/04 00:36:45;;;;;;;4.47;2.55;;;;;;;1.98;51.37;94100.72;5105450;28;20344;-71
2022/04/04 00:39:15;;;;;;;4.72;2.58;;;;;;;2.01;52.22;94107.31;5105634;28;20024;-71
2022/04/04 00:41:41;;;;;;;4.25;2.42;;;;;;;1.98;51.78;94107.84;5105659;28;20018;-72
2022/04/04 00:44:07;;;;;;;7.82;2.88;;;;;;;1.95;53.02;94113.59;5104286;28;20016;-72
2022/04/04 00:46:32;;;;;;;3.53;2.28;;;;;;;1.97;53.08;94109.69;5105519;28;20058;-72
2022/04/04 00:48:58;;;;;;;4.35;2.65;;;;;;;1.99;52.55;94104.97;5105490;28;20056;-72
2022/04/04 00:51:23;;;;;;;10.30;3.22;;;;;;;2.04;53.39;94104.19;5105302;28;20024;-72
2022/04/04 00:53:49;;;;;;;5.60;2.60;;;;;;;1.99;52.70;94104.97;5105457;28;20062;-73
2022/04/04 00:56:16;;;;;;;7.45;2.70;;;;;;;2.01;52.28;94102.06;5105164;28;20226;-72
2022/04/04 00:58:41;;;;;;;11.50;3.15;;;;;;;2.04;52.56;94114.72;5104123;28;20020;-73
2022/04/04 01:01:07;;;;;;;4.20;2.28;;;;;;;1.98;52.20;94113.88;5105269;28;20420;-73
2022/04/04 01:03:32;;;;;;;4.00;2.30;;;;;;;1.94;52.65;94107.53;5105132;28;20020;-73
2022/04/04 01:05:59;;;;;;;4.22;2.25;;;;;;;1.90;51.75;94114.34;5104897;28;20023;-73
2022/04/04 01:08:25;;;;;;;6.15;2.15;;;;;;;1.92;52.40;94116.72;5105300;28;20020;-73
2022/04/04 01:10:51;;;;;;;4.38;2.75;;;;;;;1.99;52.28;94106.78;5105055;28;20030;-74
2022/04/04 01:13:17;;;;;;;4.70;2.47;;;;;;;2.07;52.43;94110.78;5105029;28;20040;-73
2022/04/04 01:15:42;;;;;;;8.57;2.80;;;;;;;2.07;52.52;94097.63;5104946;28;20016;-73
2022/04/04 01:18:09;;;;;;;4.43;2.55;;;;;;;2.09;52.46;94098.94;5105041;28;20031;-72
2022/04/04 01:20:37;;;;;;;4.25;2.47;;;;;;;2.00;53.02;94097.84;5104871;28;20020;-72
2022/04/04 01:23:04;;;;;;;4.28;2.53;;;;;;;2.02;52.05;94110.75;5105187;28;20016;-72
2022/04/04 01:25:32;;;;;;;5.88;3.08;;;;;;;2.00;52.50;94103.13;5104862;28;20255;-72
2022/04/04 01:27:59;;;;;;;5.00;2.63;;;;;;;2.00;53.79;94089.97;5104435;28;20253;-72
2022/04/04 01:30:26;;;;;;;5.20;2.63;;;;;;;2.02;52.93;94093.13;5104647;28;20026;-72
2022/04/04 01:32:52;;;;;;;4.75;2.72;;;;;;;1.98;54.00;94081.53;5104698;28;20024;-72
2022/04/04 01:35:19;;;;;;;5.65;3.20;;;;;;;1.99;54.47;94089.19;5104680;28;20016;-73
2022/04/04 01:37:46;;;;;;;5.97;3.15;;;;;;;1.95;54.68;94090.69;5104461;28;20350;-73
2022/04/04 01:40:11;;;;;;;5.97;3.40;;;;;;;1.90;54.48;94087.28;5103232;28;20065;-72
2022/04/04 01:42:37;;;;;;;4.18;2.85;;;;;;;1.90;55.37;94092.53;5104415;28;20256;-73
2022/04/04 01:45:05;;;;;;;5.72;3.50;;;;;;;1.93;54.90;94102.53;5104504;28;20314;-73
2022/04/04 01:47:32;;;;;;;5.20;2.92;;;;;;;1.87;54.39;94099.06;5104257;28;20315;-73
2022/04/04 01:49:57;;;;;;;8.40;3.65;;;;;;;1.83;55.10;94105.09;5104205;28;20019;-73
2022/04/04 01:52:23;;;;;;;5.38;3.10;;;;;;;1.75;55.89;94101.91;5104373;28;20022;-73
2022/04/04 01:54:48;;;;;;;6.60;3.28;;;;;;;1.80;55.27;94104.53;5103557;28;20321;-72
2022/04/04 01:57:13;;;;;;;6.75;3.55;;;;;;;1.77;55.40;94101.63;5104255;28;20252;-73
2022/04/04 01:59:39;;;;;;;6.22;3.28;;;;;;;1.67;56.05;94102.34;5104192;28;20027;-72
2022/04/04 02:02:05;;;;;;;5.63;3.55;;;;;;;1.74;56.52;94108.19;5103781;28;20019;-73
2022/04/04 02:04:30;;;;;;;9.35;3.25;;;;;;;1.63;54.69;94105.72;5104010;28;20060;-73
2022/04/04 02:06:56;;;;;;;5.75;2.50;;;;;;;1.61;54.56;94106.00;5104009;28;20028;-73
2022/04/04 02:09:21;;;;;;;6.30;3.03;;;;;;;1.66;54.36;94102.59;5103890;28;20151;-73
2022/04/04 02:11:48;;;;;;;7.28;3.25;;;;;;;1.65;54.63;94101.81;5103862;28;20373;-73
2022/04/04 02:14:13;;;;;;;4.03;2.40;;;;;;;1.73;53.81;94100.53;5103798;28;20016;-73
2022/04/04 02:16:39;;;;;;;5.22;2.45;;;;;;;1.74;53.44;94089.00;5103704;28;20016;-72
2022/04/04 02:19:04;;;;;;;5.82;2.53;;;;;;;1.68;53.80;94088.16;5103848;28;20044;-73
2022/04/04 02:21:30;;;;;;;4.68;2.63;;;;;;;1.66;53.67;94087.63;5103703;28;20022;-72
2022/04/04 02:23:55;;;;;;;5.70;2.90;;;;;;;1.56;54.11;94084.91;5103646;28;20064;-72
2022/04/04 02:26:21;;;;;;;5.57;2.70;;;;;;;1.58;53.86;94096.75;5103786;28;20099;-72
2022/04/04 02:28:47;;;;;;;6.80;3.25;;;;;;;1.58;54.32;94088.09;5103496;28;20043;-72
2022/04/04 02:31:12;;;;;;;5.80;2.97;;;;;;;1.53;54.17;94098.56;5103383;28;20053;-73
2022/04/04 02:33:38;;;;;;;5.65;3.33;;;;;;;1.46;54.94;94080.38;5103371;28;20017;-72
2022/04/04 02:36:03;;;;;;;7.80;4.03;;;;;;;1.52;55.60;94086.47;5103504;28;20004;-72
2022/04/04 02:38:29;;;;;;;5.15;3.33;;;;;;;1.56;54.18;94075.19;5103388;28;20246;-73
2022/04/04 02:40:57;;;;;;;9.70;3.80;;;;;;;1.50;54.63;94078.03;5103517;28;20054;-72
2022/04/04 02:43:23;;;;;;;5.55;3.15;;;;;;;1.50;54.65;94078.81;5103483;28;20087;-72
2022/04/04 02:45:48;;;;;;;6.05;3.85;;;;;;;1.56;54.80;94083.06;5103246;28;20016;-74
2022/04/04 02:48:15;;;;;;;5.53;3.72;;;;;;;1.55;54.61;94076.25;5103227;28;20020;-73
2022/04/04 02:50:41;;;;;;;6.63;4.18;;;;;;;1.50;54.97;94076.19;5103408;28;20026;-73
2022/04/04 02:53:07;;;;;;;5.22;3.42;;;;;;;1.48;55.04;94069.63;5103179;28;20039;-73
2022/04/04 02:58:16;;;;;;;6.40;3.92;;;;;;;1.48;55.50;94065.16;5103026;28;20337;-73
2022/04/04 03:00:42;;;;;;;6.93;4.55;;;;;;;1.44;55.39;94068.53;5102860;28;20015;-72
2022/04/04 03:03:07;;;;;;;7.47;4.82;;;;;;;1.44;55.65;94063.28;5103116;28;20087;-73
2022/04/04 03:05:34;;;;;;;7.22;4.38;;;;;;;1.46;56.13;94069.84;5102196;28;20027;-73
2022/04/04 03:08:00;;;;;;;8.57;5.18;;;;;;;1.47;55.18;94062.78;5103089;28;20016;-73
2022/04/04 03:10:25;;;;;;;8.65;4.70;;;;;;;1.46;55.80;94069.06;5103149;28;20020;-72
2022/04/04 03:12:51;;;;;;;7.55;4.05;;;;;;;1.46;55.75;94072.47;5103013;28;20129;-73
2022/04/04 03:15:19;;;;;;;8.32;4.30;;;;;;;1.43;55.79;94064.34;5102881;28;20032;-72
2022/04/04 03:17:47;;;;;;;8.63;4.80;;;;;;;1.42;55.68;94073.25;5103005;28;20070;-72
2022/04/04 03:20:15;;;;;;;8.52;4.78;;;;;;;1.36;55.61;94072.41;5102722;28;20032;-73
2022/04/04 03:22:43;;;;;;;5.65;3.75;;;;;;;1.29;55.98;94080.50;5103021;28;20024;-72
2022/04/04 03:26:04;;;;;;;7.43;4.82;;;;;;;1.22;56.29;94079.09;5102896;28;20027;-72
2022/04/04 03:28:30;;;;;;;6.25;4.18;;;;;;;1.16;56.60;94080.88;5102567;28;20088;-72
2022/04/04 03:30:55;;;;;;;9.70;5.45;;;;;;;1.20;57.44;94095.09;5102769;28;20031;-72
2022/04/04 03:33:21;;;;;;;7.25;4.82;;;;;;;1.19;57.34;94089.06;5102860;28;20092;-72
2022/04/04 03:35:47;;;;;;;9.20;5.30;;;;;;;1.20;57.73;94109.03;5102683;28;20056;-72
2022/04/04 03:38:13;;;;;;;7.00;4.60;;;;;;;1.27;58.12;94106.22;5102788;28;20016;-72
2022/04/04 03:40:40;;;;;;;8.63;4.80;;;;;;;1.33;57.26;94110.47;5102772;28;20119;-72
2022/04/04 03:43:06;;;;;;;14.80;6.22;;;;;;;1.32;57.51;94098.41;5102557;28;20055;-72
2022/04/04 03:45:31;;;;;;;11.73;5.60;;;;;;;1.35;57.88;94097.88;5102768;28;20040;-73
2022/04/04 03:47:58;;;;;;;9.35;6.18;;;;;;;1.40;57.69;94105.00;5102672;28;20326;-72
2022/04/04 03:50:25;;;;;;;13.73;5.60;;;;;;;1.38;57.93;94101.84;5102727;28;20213;-72
2022/04/04 03:52:52;;;;;;;9.35;5.57;;;;;;;1.43;57.37;94111.63;5102644;28;20330;-72
2022/04/04 03:55:19;;;;;;;11.77;5.68;;;;;;;1.43;57.63;94109.78;5102396;28;20081;-72
2022/04/04 03:57:45;;;;;;;10.95;4.85;;;;;;;1.40;57.87;94111.06;5102322;28;20024;-72
2022/04/04 04:00:12;;;;;;;10.32;5.78;;;;;;;1.42;57.59;94123.16;5102505;28;20024;-72
2022/04/04 04:02:37;;;;;;;9.00;5.32;;;;;;;1.34;56.27;94117.31;5102562;28;20341;-72
2022/04/04 04:05:04;;;;;;;10.40;5.88;;;;;;;1.42;56.31;94118.69;5102426;28;20020;-72
2022/04/04 04:07:29;;;;;;;9.30;5.63;;;;;;;1.40;55.97;94128.66;5102304;28;20360;-72
2022/04/04 04:09:55;;;;;;;9.90;5.13;;;;;;;1.40;55.50;94131.28;5102599;28;20020;-72
2022/04/04 04:12:20;;;;;;;8.52;5.47;;;;;;;1.39;56.56;94141.00;5102386;28;20043;-72
2022/04/04 04:14:51;;;;;;;8.38;5.03;;;;;;;1.46;56.38;94140.00;5102462;28;20322;-72
2022/04/04 04:17:18;;;;;;;10.25;5.78;;;;;;;1.50;56.49;94135.84;5103387;28;20028;-72
2022/04/04 04:22:29;;;;;;;10.75;6.05;;;;;;;1.65;55.94;94157.00;5106087;28;20031;-72
2022/04/04 04:24:54;;;;;;;13.10;6.72;;;;;;;1.65;55.33;94143.84;5106290;28;20176;-72
2022/04/04 04:27:20;;;;;;;13.32;5.43;;;;;;;1.72;54.38;94154.94;5105881;28;20039;-72
2022/04/04 04:29:45;;;;;;;9.07;5.25;;;;;;;1.69;53.99;94155.44;5105653;28;20035;-72
2022/04/04 04:32:12;;;;;;;8.55;4.90;;;;;;;1.63;53.35;94164.34;5105730;28;20091;-72
2022/04/04 04:34:38;;;;;;;9.38;5.43;;;;;;;1.50;53.33;94160.25;5105328;28;20020;-72
2022/04/04 04:37:04;;;;;;;14.27;6.10;;;;;;;1.47;54.71;94165.25;5105351;28;20016;-72
2022/04/04 04:39:30;;;;;;;14.52;5.68;;;;;;;1.41;55.11;94169.63;5105584;28;20052;-71
2022/04/04 04:41:55;;;;;;;8.70;5.43;;;;;;;1.42;54.33;94176.47;5105879;28;20024;-71
2022/04/04 04:44:21;;;;;;;10.18;5.38;;;;;;;1.39;54.51;94161.22;5105689;28;20020;-72
2022/04/04 04:46:48;;;;;;;9.18;5.70;;;;;;;1.44;54.08;94160.47;5105487;28;20322;-72
2022/04/04 04:49:14;;;;;;;10.25;5.07;;;;;;;1.39;54.05;94169.88;5105628;28;20086;-72
2022/04/04 04:51:41;;;;;;;9.32;5.32;;;;;;;1.34;54.25;94169.84;5105237;28;20032;-74
2022/04/04 04:54:08;;;;;;;8.60;5.85;;;;;;;1.36;54.57;94175.66;5105585;28;20369;-73
2022/04/04 04:56:34;;;;;;;14.23;4.63;;;;;;;1.36;54.40;94182.72;5104986;28;20040;-73
2022/04/04 04:58:59;;;;;;;7.70;4.78;;;;;;;1.37;54.94;94182.47;5105308;28;20130;-73
2022/04/04 05:01:25;;;;;;;10.93;5.53;;;;;;;1.41;54.85;94174.91;5105399;28;20213;-74
2022/04/04 05:03:51;;;;;;;9.68;5.53;;;;;;;1.46;54.81;94185.44;5105509;28;20016;-72
2022/04/04 05:06:16;;;;;;;9.57;5.03;;;;;;;1.42;54.72;94181.72;5105165;28;20023;-72
2022/04/04 05:08:42;;;;;;;7.38;5.15;;;;;;;1.47;55.16;94181.78;5105186;28;20027;-72
2022/04/04 05:11:07;;;;;;;8.50;4.60;;;;;;;1.51;54.96;94180.25;5105074;28;20055;-72
2022/04/04 05:13:33;;;;;;;10.10;6.40;;;;;;;1.56;55.52;94179.50;5105029;28;20020;-71
2022/04/04 05:15:58;;;;;;;10.82;5.60;;;;;;;1.55;54.92;94180.56;5104992;28;20024;-72
2022/04/04 05:18:24;;;;;;;9.15;5.38;;;;;;;1.51;55.49;94175.00;5105214;28;20082;-71
2022/04/04 05:20:50;;;;;;;10.77;6.20;;;;;;;1.56;56.51;94180.28;5104864;28;20073;-71
2022/04/04 05:23:15;;;;;;;12.70;5.45;;;;;;;1.56;55.90;94182.91;5104889;28;20249;-71
2022/04/04 05:25:42;;;;;;;12.65;5.88;;;;;;;1.62;56.84;94193.47;5104818;28;20340;-72
2022/04/04 05:28:08;;;;;;;12.77;6.65;;;;;;;1.70;56.20;94195.66;5104448;28;20031;-73
2022/04/04 05:30:34;;;;;;;10.07;5.60;;;;;;;1.70;55.91;94201.69;5104114;28;20093;-73
2022/04/04 05:33:00;;;;;;;10.02;5.85;;;;;;;1.76;56.13;94208.59;5104722;28;20306;-73
2022/04/04 05:35:26;;;;;;;10.45;6.20;;;;;;;1.76;56.92;94211.22;5104718;28;20024;-73
2022/04/04 05:37:55;;;;;;;10.70;6.60;;;;;;;1.82;56.61;94216.53;5104663;28;20038;-72
2022/04/04 05:40:21;;;;;;;10.30;5.93;;;;;;;1.88;56.19;94220.78;5104316;28;20086;-71
2022/04/04 05:42:47;;;;;;;15.88;6.53;;;;;;;1.86;56.81;94226.28;5104409;28;20024;-72
2022/04/04 05:45:12;;;;;;;12.82;6.07;;;;;;;1.85;56.48;94229.16;5104379;28;20128;-73
2022/04/04 05:47:38;;;;;;;12.23;6.15;;;;;;;1.94;56.78;94228.47;5104227;28;20257;-72
2022/04/04 05:50:04;;;;;;;9.38;6.03;;;;;;;1.96;56.08;94229.00;5104165;28;20221;-73
2022/04/04 05:52:30;;;;;;;10.23;6.40;;;;;;;2.06;56.37;94238.03;5104270;28;20081;-72
2022/04/04 05:54:57;;;;;;;12.63;6.25;;;;;;;2.06;55.77;94238.81;5104348;28;20044;-72
2022/04/04 05:57:35;;;;;;;11.63;5.57;;;;;;;2.09;55.86;94245.41;5104284;28;20016;-72
2022/04/04 06:00:01;;;;;;;9.75;5.25;;;;;;;1.96;55.93;94238.75;5104192;28;20028;-72
2022/04/04 06:02:27;;;;;;;15.57;7.00;;;;;;;1.87;56.79;94235.75;5103875;28;20069;-72
2022/04/04 06:04:53;;;;;;;8.73;5.45;;;;;;;1.90;57.18;94239.75;5103971;28;20234;-72
2022/04/04 06:07:19;;;;;;;12.13;6.22;;;;;;;2.06;57.78;94233.56;5103904;28;20024;-73
2022/04/04 06:09:44;;;;;;;9.43;5.90;;;;;;;2.23;57.48;94235.28;5103909;28;20016;-71
2022/04/04 06:12:10;;;;;;;16.50;7.13;;;;;;;2.37;58.24;94233.81;5104019;28;20023;-74
2022/04/04 06:14:36;;;;;;;14.25;6.13;;;;;;;2.57;57.03;94235.78;5104922;28;20209;-76
2022/04/04 06:17:06;;;;;;;11.35;6.07;;;;;;;2.70;55.93;94237.97;5103822;28;20019;-77
2022/04/04 06:19:34;;;;;;;10.82;6.65;;;;;;;2.76;55.60;94225.63;5103618;28;20216;-77
2022/04/04 06:21:59;;;;;;;10.82;6.90;;;;;;;2.85;55.49;94224.13;5103803;28;20032;-76
2022/04/04 06:24:25;;;;;;;10.68;5.82;;;;;;;2.87;55.22;94222.03;5103922;28;20074;-78
2022/04/04 06:26:50;;;;;;;13.48;6.43;;;;;;;2.80;54.55;94205.66;5103215;28;20341;-78
2022/04/04 06:29:16;;;;;;;10.30;6.25;;;;;;;2.70;55.00;94218.75;5103649;28;20032;-78
2022/04/04 06:31:41;;;;;;;13.50;6.53;;;;;;;2.66;55.78;94215.03;5103481;28;20036;-79
2022/04/04 06:34:08;;;;;;;11.70;6.10;;;;;;;2.73;56.32;94220.88;5102286;28;20020;-79
2022/04/04 06:36:34;;;;;;;11.82;6.55;;;;;;;2.79;55.89;94214.59;5102274;28;20054;-78
2022/04/04 06:38:59;;;;;;;10.95;6.13;;;;;;;2.83;55.52;94231.47;5103559;28;20023;-78
2022/04/04 06:41:25;;;;;;;10.05;6.70;;;;;;;2.87;55.91;94227.28;5102741;28;20020;-77
2022/04/04 06:43:51;;;;;;;10.55;6.43;;;;;;;2.84;55.92;94232.25;5103462;28;20024;-78
2022/04/04 06:46:17;;;;;;;8.88;4.78;;;;;;;2.75;55.44;94234.59;5103531;28;20099;-78
2022/04/04 06:48:48;;;;;;;14.00;5.95;;;;;;;2.78;55.32;94244.59;5103383;28;20203;-79
2022/04/04 06:51:13;;;;;;;9.38;6.00;;;;;;;2.83;54.73;94234.09;5103171;28;20129;-79
2022/04/04 06:53:39;;;;;;;12.02;6.85;;;;;;;2.96;55.36;94238.91;5103188;28;20030;-79
2022/04/04 06:56:05;;;;;;;17.67;5.93;;;;;;;3.18;54.26;94233.47;5102847;28;20103;-80
2022/04/04 06:58:30;;;;;;;10.15;6.93;;;;;;;3.36;54.46;94234.88;5102779;28;20115;-75
2022/04/04 07:00:55;;;;;;;10.70;6.22;;;;;;;3.52;53.72;94233.09;5103223;28;20054;-75
2022/04/04 07:03:21;;;;;;;18.83;7.00;;;;;;;3.68;53.35;94227.84;5102285;28;20170;-82
2022/04/04 07:05:46;;;;;;;14.98;6.43;;;;;;;3.96;52.71;94229.19;5103110;28;20051;-81
2022/04/04 07:08:12;;;;;;;8.65;5.88;;;;;;;4.14;51.26;94238.47;5100611;28;20043;-82
2022/04/04 07:10:38;;;;;;;11.90;6.68;;;;;;;4.20;50.63;94242.69;5102998;28;20020;-79
2022/04/04 07:13:07;;;;;;;11.95;7.30;;;;;;;4.20;50.31;94246.09;5103062;28;20027;-78
2022/04/04 07:15:32;;;;;;;11.35;6.13;;;;;;;4.29;50.66;94245.59;5103437;28;20020;-77
2022/04/04 07:17:58;;;;;;;10.30;5.68;;;;;;;4.43;51.17;94236.06;5103039;28;20240;-76
2022/04/04 07:20:23;;;;;;;10.73;6.65;;;;;;;4.62;50.15;94245.03;5102978;28;20329;-77
2022/04/04 07:22:50;;;;;;;10.30;6.05;;;;;;;4.78;50.09;94243.19;5102991;28;20091;-75
2022/04/04 07:25:15;;;;;;;12.18;5.88;;;;;;;4.75;49.93;94241.06;5102949;28;20016;-78
2022/04/04 07:27:44;;;;;;;12.80;5.70;;;;;;;4.69;49.41;94246.63;5104242;28;20035;-76
2022/04/04 07:30:13;;;;;;;11.73;6.63;;;;;;;4.75;49.82;94238.41;5103102;28;20024;-78
2022/04/04 07:32:40;;;;;;;10.57;6.80;;;;;;;4.95;49.83;94240.25;5103106;28;20020;-77
2022/04/04 07:35:11;;;;;;;11.50;6.40;;;;;;;5.13;49.38;94240.69;5103105;28;20047;-78
2022/04/04 07:37:41;;;;;;;10.43;6.32;;;;;;;5.30;49.56;94243.03;5104423;28;20261;-79
2022/04/04 07:40:10;;;;;;;10.95;6.07;;;;;;;5.47;49.80;94254.06;5104197;28;20023;-82
2022/04/04 07:42:37;;;;;;;8.95;6.10;;;;;;;5.70;49.00;94243.91;5104375;28;20024;-80
2022/04/04 07:45:02;;;;;;;12.02;6.75;;;;;;;5.84;47.15;94247.53;5104552;28;20108;-81
2022/04/04 07:47:28;;;;;;;9.43;6.13;;;;;;;5.86;47.29;94252.56;5103628;28;20051;-81
2022/04/04 07:49:54;;;;;;;10.77;6.28;;;;;;;6.00;47.05;94256.22;5102358;28;20028;-85
2022/04/04 07:52:19;;;;;;;12.10;6.53;;;;;;;6.19;47.03;94248.44;5103979;28;20035;-79
2022/04/04 07:54:45;;;;;;;18.20;9.90;;;;;;;6.44;46.78;94252.75;5106326;28;20072;-83
2022/04/04 07:57:10;;;;;;;13.38;7.38;;;;;;;6.66;46.38;94246.22;5106452;28;20020;-80
2022/04/04 07:59:36;;;;;;;8.13;6.00;;;;;;;6.89;46.12;94256.06;5106394;28;20051;-77
2022/04/04 08:02:05;;;;;;;11.48;7.25;;;;;;;7.10;46.11;94251.31;5106364;28;20024;-78
2022/04/04 08:04:31;;;;;;;11.18;6.85;;;;;;;7.27;45.44;94250.91;5106481;28;20020;-79
2022/04/04 08:06:56;;;;;;;11.05;7.18;;;;;;;7.43;44.43;94248.88;5105220;28;20055;-77
2022/04/04 08:09:22;;;;;;;18.70;7.10;;;;;;;7.51;43.05;94250.09;5105032;28;20024;-78
2022/04/04 08:11:52;;;;;;;9.35;5.95;;;;;;;7.42;42.41;94248.06;5106574;28;20024;-79
2022/04/04 08:14:19;;;;;;;10.73;6.00;;;;;;;7.33;43.33;94249.78;5106160;28;20218;-79
2022/04/04 08:16:45;;;;;;;13.45;6.47;;;;;;;7.30;42.63;94241.59;5106472;28;20086;-80
2022/04/04 08:19:13;;;;;;;14.05;7.18;;;;;;;7.28;42.47;94252.47;5106126;28;20024;-77
2022/04/04 08:21:41;;;;;;;10.82;6.47;;;;;;;7.14;42.77;94238.31;5106201;28;20037;-78
2022/04/04 08:24:07;;;;;;;12.55;6.97;;;;;;;7.05;43.49;94245.31;5106139;28;20032;-79
2022/04/04 08:26:33;;;;;;;11.75;6.07;;;;;;;7.06;42.58;94239.72;5105688;28;20207;-79
2022/04/04 08:28:58;;;;;;;12.70;7.47;;;;;;;7.05;43.11;94242.66;5106083;28;20027;-80
2022/04/04 08:31:24;;;;;;;10.98;6.80;;;;;;;7.02;43.45;94239.50;5106183;28;20019;-76
2022/04/04 08:33:50;;;;;;;9.93;6.72;;;;;;;7.09;43.48;94230.44;5105446;28;20218;-79
2022/04/04 08:36:16;;;;;;;12.40;7.80;;;;;;;7.19;42.84;94225.00;5105673;28;20043;-81
2022/04/04 08:38:41;;;;;;;12.30;7.30;;;;;;;7.13;43.71;94223.50;5105980;28;20024;-79
2022/04/04 08:41:09;;;;;;;11.82;7.82;;;;;;;7.20;42.60;94234.53;5105727;28;20020;-75
2022/04/04 08:43:38;;;;;;;15.90;7.10;;;;;;;7.06;43.15;94213.22;5105552;28;20028;-78
2022/04/04 08:46:06;;;;;;;12.70;6.85;;;;;;;6.93;44.36;94222.63;5105675;28;20024;-76
2022/04/04 08:48:35;;;;;;;11.27;7.03;;;;;;;6.86;44.54;94218.72;5105695;28;20091;-76
2022/04/04 08:51:00;;;;;;;14.32;7.50;;;;;;;6.94;43.96;94210.16;5105535;28;20048;-76
2022/04/04 08:53:26;;;;;;;16.67;7.95;;;;;;;7.06;44.31;94201.81;5105577;28;20073;-77
2022/04/04 08:55:52;;;;;;;12.82;7.80;;;;;;;7.25;43.53;94194.72;5105260;28;20048;-79
2022/04/04 08:58:17;;;;;;;19.95;7.30;;;;;;;7.27;42.54;94194.44;5105109;28;20028;-77
2022/04/04 09:00:42;;;;;;;13.43;7.50;;;;;;;7.21;43.11;94193.72;5105175;28;20028;-78
2022/04/04 09:03:09;;;;;;;11.00;6.95;;;;;;;7.17;43.15;94192.69;5104947;28;20052;-81
2022/04/04 09:05:50;;;;;;;13.48;7.38;;;;;;;7.12;43.28;94190.88;5104655;28;20218;-80
2022/04/04 09:08:15;;;;;;;13.98;6.57;;;;;;;7.10;43.25;94186.94;5105063;28;20264;-79
2022/04/04 09:10:43;;;;;;;13.93;8.15;;;;;;;7.11;43.73;94188.53;5105143;28;20024;-77
2022/04/04 09:13:15;;;;;;;13.48;7.50;;;;;;;7.08;43.09;94189.06;5105236;28;20028;-80
2022/04/04 09:16:03;;;;;;;12.18;7.93;;;;;;;7.06;43.36;94180.63;5105098;28;20032;-77
2022/04/04 09:18:41;;;;;;;13.25;7.63;;;;;;;7.36;44.29;94177.59;5105149;28;20103;-78
2022/04/04 09:21:18;;;;;;;11.32;6.70;;;;;;;7.71;43.87;94172.09;5104714;28;20028;-79
2022/04/04 09:23:47;;;;;;;17.02;7.03;;;;;;;7.70;42.50;94175.84;5105023;28;20020;-77
2022/04/04 09:26:35;;;;;;;11.73;7.28;;;;;;;7.71;42.63;94177.41;5104708;28;20030;-79
2022/04/04 09:29:07;;;;;;;12.57;7.53;;;;;;;7.82;42.24;94166.38;5104540;28;20080;-76
2022/04/04 09:31:33;;;;;;;12.32;7.70;;;;;;;8.11;43.03;94159.31;5104445;28;20035;-77
2022/04/04 09:34:01;;;;;;;13.07;7.65;;;;;;;8.46;42.54;94155.31;5103680;28;20035;-78
2022/04/04 09:36:28;;;;;;;12.48;7.13;;;;;;;8.68;42.11;94149.34;5104779;28;20024;-77
2022/04/04 09:39:05;;;;;;;12.50;7.53;;;;;;;8.97;41.95;94142.97;5104960;28;20210;-77
2022/04/04 09:41:30;;;;;;;12.88;7.68;;;;;;;9.13;40.08;94154.09;5104848;28;20304;-78
2022/04/04 09:44:05;;;;;;;15.60;7.65;;;;;;;9.11;40.11;94140.31;5104943;28;20032;-78
2022/04/04 09:46:36;;;;;;;14.13;6.78;;;;;;;9.02;40.54;94146.34;5104432;28;20198;-77
2022/04/04 09:49:13;;;;;;;10.48;6.47;;;;;;;9.18;39.67;94143.34;5103996;28;20062;-77
2022/04/04 09:51:41;;;;;;;12.10;7.53;;;;;;;9.13;38.91;94138.16;5104054;28;20317;-77
2022/04/04 09:54:23;;;;;;;14.07;6.95;;;;;;;8.95;39.99;94137.94;5104578;28;20065;-78
2022/04/04 09:56:53;;;;;;;11.73;6.43;;;;;;;8.80;40.00;94131.06;5104283;28;20035;-77
2022/04/04 09:59:19;;;;;;;13.73;6.75;;;;;;;8.98;41.04;94133.94;5104329;28;20041;-78
2022/04/04 10:01:46;;;;;;;13.52;6.60;;;;;;;9.37;40.49;94127.28;5104459;28;20034;-77
2022/04/04 10:04:12;;;;;;;15.48;6.47;;;;;;;9.69;40.37;94118.34;5103962;28;20019;-76
2022/04/04 10:06:43;;;;;;;14.13;7.25;;;;;;;10.07;39.07;94118.00;5103941;28;20069;-78
2022/04/04 10:09:09;;;;;;;11.88;7.00;;;;;;;10.13;38.06;94114.13;5103728;28;20023;-76
2022/04/04 10:11:38;;;;;;;12.18;7.50;;;;;;;9.99;37.65;94110.72;5102474;28;20031;-78
2022/04/04 10:14:05;;;;;;;17.70;7.43;;;;;;;9.76;37.90;94110.72;5103973;28;20207;-79
2022/04/04 10:16:32;;;;;;;9.88;6.93;;;;;;;9.36;38.66;94099.91;5103576;28;20020;-77
2022/04/04 10:18:58;;;;;;;12.07;7.07;;;;;;;9.27;38.80;94096.38;5103670;28;20042;-77
2022/04/04 10:21:25;;;;;;;13.55;6.38;;;;;;;9.01;39.16;94088.91;5104018;28;20091;-77
2022/04/04 10:23:55;;;;;;;19.10;7.40;;;;;;;9.00;39.67;94084.69;5103898;28;20050;-78
2022/04/04 10:26:25;;;;;;;16.60;7.30;;;;;;;9.11;39.40;94084.47;5103668;28;20100;-77
2022/04/04 10:28:52;;;;;;;15.63;7.03;;;;;;;9.29;39.89;94078.25;5103398;28;20020;-76
2022/04/04 10:31:23;;;;;;;12.95;7.25;;;;;;;9.54;39.97;94084.09;5103446;28;20046;-78
2022/04/04 10:33:50;;;;;;;12.50;6.38;;;;;;;9.90;39.68;94085.94;5103438;28;20024;-78
2022/04/04 10:36:22;;;;;;;16.00;7.22;;;;;;;10.26;38.29;94077.88;5103454;28;20024;-76
2022/04/04 10:38:54;;;;;;;17.58;7.18;;;;;;;10.39;37.33;94077.00;5103336;28;20079;-76
2022/04/04 10:41:23;;;;;;;16.23;7.20;;;;;;;10.55;38.56;94068.63;5103405;28;20034;-76
2022/04/04 10:43:50;;;;;;;12.95;6.38;;;;;;;10.81;37.74;94071.41;5102350;28;20297;-76
2022/04/04 10:46:19;;;;;;;12.20;7.35;;;;;;;11.10;38.04;94067.41;5103073;28;20028;-76
2022/04/04 10:48:50;;;;;;;12.38;6.55;;;;;;;11.37;36.78;94058.31;5103346;28;20091;-76
2022/04/04 10:51:36;;;;;;;14.20;8.32;;;;;;;11.58;35.93;94058.47;5102951;28;20062;-75
2022/04/04 10:54:07;;;;;;;16.95;7.32;;;;;;;11.70;35.79;94052.53;5103418;28;20041;-76
2022/04/04 10:56:47;;;;;;;8.13;5.25;;;;;;;11.72;34.97;94053.78;5102981;28;20040;-76
2022/04/04 10:59:15;;;;;;;11.25;6.38;;;;;;;11.93;35.38;94058.53;5103248;28;20020;-77
2022/04/04 11:01:46;;;;;;;15.70;6.43;;;;;;;12.03;34.78;94053.63;5102009;28;20024;-77
2022/04/04 11:04:25;;;;;;;20.38;5.90;;;;;;;12.29;35.39;94052.00;5102747;28;20024;-76
2022/04/04 11:10:08;;;;;;;12.13;6.60;;;;;;;12.77;34.37;94046.31;5102916;28;20035;-77
2022/04/04 11:13:05;;;;;;;10.68;6.05;;;;;;;12.79;32.22;94051.34;5102877;28;20103;-79
2022/04/04 11:15:53;;;;;;;9.27;5.55;;;;;;;12.52;32.67;94052.56;5102987;28;20206;-77
2022/04/04 11:18:32;;;;;;;14.45;6.18;;;;;;;11.98;33.20;94053.78;5102971;28;20268;-77
2022/04/04 11:21:24;;;;;;;15.68;6.35;;;;;;;11.74;34.51;94051.56;5103420;28;20036;-76
2022/04/04 11:23:51;;;;;;;21.70;7.65;;;;;;;11.80;36.16;94036.97;5102864;28;20023;-77
2022/04/04 11:26:18;;;;;;;12.00;6.82;;;;;;;11.97;35.73;94035.41;5101093;28;20070;-76
2022/04/04 11:28:46;;;;;;;12.75;6.43;;;;;;;12.24;34.47;94024.34;5106425;28;20308;-77
2022/04/04 11:31:12;;;;;;;10.95;5.95;;;;;;;12.20;33.50;94034.09;5107009;28;20032;-79
2022/04/04 11:33:48;;;;;;;9.82;5.63;;;;;;;12.42;33.40;94016.28;5106755;28;20103;-81
2022/04/04 11:36:41;;;;;;;10.57;4.95;;;;;;;12.33;32.92;94015.50;5106763;28;20024;-81
2022/04/04 11:39:09;;;;;;;11.15;5.22;;;;;;;12.12;32.44;94021.53;5105854;28;20039;-78
2022/04/04 11:41:46;;;;;;;10.30;5.05;;;;;;;11.98;32.98;94013.72;5106763;28;20403;-78
2022/04/04 11:44:31;;;;;;;15.02;6.18;;;;;;;11.95;33.64;94018.94;5105541;28;20016;-77
2022/04/04 11:47:18;;;;;;;11.60;5.70;;;;;;;11.91;34.00;94015.31;5106675;28;20031;-78